sensor_id;sensor_type;location;lat;lon;timestamp;temperature;humidity
2497;DHT22;1259;48.306;14.374;2022-12-29T00:01:27;2.70;99.90
2497;DHT22;1259;48.306;14.374;2022-12-29T00:03:54;2.70;99.90
2497;DHT22;1259;48.306;14.374;2022-12-29T00:06:23;2.70;99.90
2497;DHT22;1259;48.306;14.374;2022-12-29T00:08:50;2.70;99.90
2497;DHT22;1259;48.306;14.374;2022-12-29T00:11:19;2.80;99.90
2497;DHT22;1259;48.306;14.374;2022-12-29T00:13:47;2.80;99.90
2497;DHT22;1259;48.306;14.374;2022-12-29T00:16:31;2.80;99.90
2497;DHT22;1259;48.306;14.374;2022-12-29T00:19:00;2.80;99.90
2497;DHT22;1259;48.306;14.374;2022-12-29T00:21:28;2.90;99.90
2497;DHT22;1259;48.306;14.374;2022-12-29T00:24:15;2.90;99.90
2497;DHT22;1259;48.306;14.374;2022-12-29T00:27:10;2.90;99.90
2497;DHT22;1259;48.306;14.374;2022-12-29T00:29:55;2.90;99.90
2497;DHT22;1259;48.306;14.374;2022-12-29T00:32:40;2.90;99.90
2497;DHT22;1259;48.306;14.374;2022-12-29T00:35:27;2.90;99.90
2497;DHT22;1259;48.306;14.374;2022-12-29T00:37:59;2.80;99.90
2497;DHT22;1259;48.306;14.374;2022-12-29T00:40:45;2.80;99.90
2497;DHT22;1259;48.306;14.374;2022-12-29T00:43:29;2.70;99.90
2497;DHT22;1259;48.306;14.374;2022-12-29T00:46:13;2.80;99.90
2497;DHT22;1259;48.306;14.374;2022-12-29T00:48:40;2.70;99.90
2497;DHT22;1259;48.306;14.374;2022-12-29T00:51:24;2.70;99.90
2497;DHT22;1259;48.306;14.374;2022-12-29T00:53:52;2.70;99.90
2497;DHT22;1259;48.306;14.374;2022-12-29T00:56:19;2.70;99.90
2497;DHT22;1259;48.306;14.374;2022-12-29T00:58:46;2.70;99.90
2497;DHT22;1259;48.306;14.374;2022-12-29T01:01:13;2.70;99.90
2497;DHT22;1259;48.306;14.374;2022-12-29T01:03:40;2.70;99.90
2497;DHT22;1259;48.306;14.374;2022-12-29T01:06:09;2.70;99.90
2497;DHT22;1259;48.306;14.374;2022-12-29T01:08:36;2.50;99.90
2497;DHT22;1259;48.306;14.374;2022-12-29T01:11:06;2.50;99.90
2497;DHT22;1259;48.306;14.374;2022-12-29T01:13:33;2.50;99.90
2497;DHT22;1259;48.306;14.374;2022-12-29T01:15:59;2.50;99.90
2497;DHT22;1259;48.306;14.374;2022-12-29T01:18:27;2.50;99.90
2497;DHT22;1259;48.306;14.374;2022-12-29T01:20:59;2.40;99.90
2497;DHT22;1259;48.306;14.374;2022-12-29T01:23:26;2.40;99.90
2497;DHT22;1259;48.306;14.374;2022-12-29T01:25:53;2.30;99.90
2497;DHT22;1259;48.306;14.374;2022-12-29T01:28:22;2.30;99.90
2497;DHT22;1259;48.306;14.374;2022-12-29T01:30:49;2.30;99.90
2497;DHT22;1259;48.306;14.374;2022-12-29T01:33:16;2.40;99.90
2497;DHT22;1259;48.306;14.374;2022-12-29T01:35:42;2.40;99.90
2497;DHT22;1259;48.306;14.374;2022-12-29T01:38:09;2.50;99.90
2497;DHT22;1259;48.306;14.374;2022-12-29T01:40:43;2.40;99.90
2497;DHT22;1259;48.306;14.374;2022-12-29T01:43:11;2.50;99.90
2497;DHT22;1259;48.306;14.374;2022-12-29T01:45:42;2.40;99.90
2497;DHT22;1259;48.306;14.374;2022-12-29T01:48:11;2.40;99.90
2497;DHT22;1259;48.306;14.374;2022-12-29T01:50:41;2.40;99.90
2497;DHT22;1259;48.306;14.374;2022-12-29T01:53:13;2.50;99.90
2497;DHT22;1259;48.306;14.374;2022-12-29T01:55:44;2.50;99.90
2497;DHT22;1259;48.306;14.374;2022-12-29T01:58:12;2.40;99.90
2497;DHT22;1259;48.306;14.374;2022-12-29T02:00:41;2.50;99.90
2497;DHT22;1259;48.306;14.374;2022-12-29T02:03:08;2.50;99.90
2497;DHT22;1259;48.306;14.374;2022-12-29T02:05:39;2.50;99.90
2497;DHT22;1259;48.306;14.374;2022-12-29T02:08:08;2.50;99.90
2497;DHT22;1259;48.306;14.374;2022-12-29T02:10:36;2.50;99.90
2497;DHT22;1259;48.306;14.374;2022-12-29T02:13:04;2.50;99.90
2497;DHT22;1259;48.306;14.374;2022-12-29T02:15:35;2.50;99.90
2497;DHT22;1259;48.306;14.374;2022-12-29T02:18:18;2.50;99.90
2497;DHT22;1259;48.306;14.374;2022-12-29T02:21:05;2.40;99.90
2497;DHT22;1259;48.306;14.374;2022-12-29T02:32:30;2.40;99.90
2497;DHT22;1259;48.306;14.374;2022-12-29T02:35:06;2.40;99.90
2497;DHT22;1259;48.306;14.374;2022-12-29T02:37:41;2.40;99.90
2497;DHT22;1259;48.306;14.374;2022-12-29T02:40:17;2.50;99.90
2497;DHT22;1259;48.306;14.374;2022-12-29T02:42:51;2.50;99.90
2497;DHT22;1259;48.306;14.374;2022-12-29T02:45:24;2.50;99.90
2497;DHT22;1259;48.306;14.374;2022-12-29T02:48:00;2.50;99.90
2497;DHT22;1259;48.306;14.374;2022-12-29T02:50:33;2.50;99.90
2497;DHT22;1259;48.306;14.374;2022-12-29T02:53:05;2.50;99.90
2497;DHT22;1259;48.306;14.374;2022-12-29T02:55:33;2.50;99.90
2497;DHT22;1259;48.306;14.374;2022-12-29T02:58:17;2.50;99.90
2497;DHT22;1259;48.306;14.374;2022-12-29T03:00:55;2.50;99.90
2497;DHT22;1259;48.306;14.374;2022-12-29T03:03:32;2.50;99.90
2497;DHT22;1259;48.306;14.374;2022-12-29T03:06:13;2.50;99.90
2497;DHT22;1259;48.306;14.374;2022-12-29T03:08:48;2.50;99.90
2497;DHT22;1259;48.306;14.374;2022-12-29T03:11:17;2.50;99.90
2497;DHT22;1259;48.306;14.374;2022-12-29T03:14:06;2.50;99.90
2497;DHT22;1259;48.306;14.374;2022-12-29T03:16:57;2.60;99.90
2497;DHT22;1259;48.306;14.374;2022-12-29T03:19:30;2.50;99.90
2497;DHT22;1259;48.306;14.374;2022-12-29T03:21:59;2.50;99.90
2497;DHT22;1259;48.306;14.374;2022-12-29T03:24:47;2.60;99.90
2497;DHT22;1259;48.306;14.374;2022-12-29T03:27:18;2.60;99.90
2497;DHT22;1259;48.306;14.374;2022-12-29T03:29:48;2.60;99.90
2497;DHT22;1259;48.306;14.374;2022-12-29T03:32:21;2.60;99.90
2497;DHT22;1259;48.306;14.374;2022-12-29T03:34:52;2.70;99.90
2497;DHT22;1259;48.306;14.374;2022-12-29T03:37:23;2.70;99.90
2497;DHT22;1259;48.306;14.374;2022-12-29T03:39:51;2.70;99.90
2497;DHT22;1259;48.306;14.374;2022-12-29T03:42:20;2.70;99.90
2497;DHT22;1259;48.306;14.374;2022-12-29T03:44:48;2.70;99.90
2497;DHT22;1259;48.306;14.374;2022-12-29T03:47:19;2.70;99.90
2497;DHT22;1259;48.306;14.374;2022-12-29T03:49:46;2.70;99.90
2497;DHT22;1259;48.306;14.374;2022-12-29T03:52:15;2.70;99.90
2497;DHT22;1259;48.306;14.374;2022-12-29T03:54:42;2.80;99.90
2497;DHT22;1259;48.306;14.374;2022-12-29T03:57:09;2.80;99.90
2497;DHT22;1259;48.306;14.374;2022-12-29T03:59:36;2.80;99.90
2497;DHT22;1259;48.306;14.374;2022-12-29T04:02:03;2.80;99.90
2497;DHT22;1259;48.306;14.374;2022-12-29T04:04:30;2.80;99.90
2497;DHT22;1259;48.306;14.374;2022-12-29T04:06:57;2.80;99.90
2497;DHT22;1259;48.306;14.374;2022-12-29T04:09:25;2.80;99.90
2497;DHT22;1259;48.306;14.374;2022-12-29T04:11:52;2.70;99.90
2497;DHT22;1259;48.306;14.374;2022-12-29T04:14:19;2.70;99.90
2497;DHT22;1259;48.306;14.374;2022-12-29T04:16:46;2.80;99.90
2497;DHT22;1259;48.306;14.374;2022-12-29T04:19:13;2.80;99.90
2497;DHT22;1259;48.306;14.374;2022-12-29T04:21:40;2.80;99.90
2497;DHT22;1259;48.306;14.374;2022-12-29T04:24:07;2.80;99.90
2497;DHT22;1259;48.306;14.374;2022-12-29T04:26:35;2.80;99.90
2497;DHT22;1259;48.306;14.374;2022-12-29T04:29:02;2.80;99.90
2497;DHT22;1259;48.306;14.374;2022-12-29T04:31:29;2.80;99.90
2497;DHT22;1259;48.306;14.374;2022-12-29T04:33:55;2.80;99.90
2497;DHT22;1259;48.306;14.374;2022-12-29T04:36:23;2.80;99.90
2497;DHT22;1259;48.306;14.374;2022-12-29T04:38:50;2.80;99.90
2497;DHT22;1259;48.306;14.374;2022-12-29T04:41:17;2.80;99.90
2497;DHT22;1259;48.306;14.374;2022-12-29T04:43:45;2.90;99.90
2497;DHT22;1259;48.306;14.374;2022-12-29T04:46:12;2.90;99.90
2497;DHT22;1259;48.306;14.374;2022-12-29T04:48:39;2.90;99.90
2497;DHT22;1259;48.306;14.374;2022-12-29T04:51:06;2.90;99.90
2497;DHT22;1259;48.306;14.374;2022-12-29T04:53:32;2.90;99.90
2497;DHT22;1259;48.306;14.374;2022-12-29T04:55:59;2.90;99.90
2497;DHT22;1259;48.306;14.374;2022-12-29T04:58:26;2.90;99.90
2497;DHT22;1259;48.306;14.374;2022-12-29T05:00:54;2.90;99.90
2497;DHT22;1259;48.306;14.374;2022-12-29T05:03:21;2.90;99.90
2497;DHT22;1259;48.306;14.374;2022-12-29T05:05:48;2.90;99.90
2497;DHT22;1259;48.306;14.374;2022-12-29T05:08:15;2.80;99.90
2497;DHT22;1259;48.306;14.374;2022-12-29T05:10:44;2.80;99.90
2497;DHT22;1259;48.306;14.374;2022-12-29T05:13:11;2.90;99.90
2497;DHT22;1259;48.306;14.374;2022-12-29T05:15:38;2.90;99.90
2497;DHT22;1259;48.306;14.374;2022-12-29T05:18:06;2.90;99.90
2497;DHT22;1259;48.306;14.374;2022-12-29T05:20:33;3.00;99.90
2497;DHT22;1259;48.306;14.374;2022-12-29T05:23:00;3.00;99.90
2497;DHT22;1259;48.306;14.374;2022-12-29T05:25:27;3.10;99.90
2497;DHT22;1259;48.306;14.374;2022-12-29T05:27:54;3.10;99.90
2497;DHT22;1259;48.306;14.374;2022-12-29T05:30:21;3.20;99.90
2497;DHT22;1259;48.306;14.374;2022-12-29T05:32:47;3.20;99.90
2497;DHT22;1259;48.306;14.374;2022-12-29T05:35:16;3.20;99.90
2497;DHT22;1259;48.306;14.374;2022-12-29T05:37:43;3.20;99.90
2497;DHT22;1259;48.306;14.374;2022-12-29T05:40:10;3.20;99.90
2497;DHT22;1259;48.306;14.374;2022-12-29T05:42:37;3.10;99.90
2497;DHT22;1259;48.306;14.374;2022-12-29T05:45:06;3.20;99.90
2497;DHT22;1259;48.306;14.374;2022-12-29T05:47:33;3.20;99.90
2497;DHT22;1259;48.306;14.374;2022-12-29T05:50:00;3.20;99.90
2497;DHT22;1259;48.306;14.374;2022-12-29T05:52:28;3.30;99.90
2497;DHT22;1259;48.306;14.374;2022-12-29T05:54:55;3.20;99.90
2497;DHT22;1259;48.306;14.374;2022-12-29T05:57:22;3.20;99.90
2497;DHT22;1259;48.306;14.374;2022-12-29T05:59:49;3.10;99.90
2497;DHT22;1259;48.306;14.374;2022-12-29T06:02:15;3.10;99.90
2497;DHT22;1259;48.306;14.374;2022-12-29T06:04:42;3.10;99.90
2497;DHT22;1259;48.306;14.374;2022-12-29T06:07:10;3.20;99.90
2497;DHT22;1259;48.306;14.374;2022-12-29T06:09:38;3.10;99.90
2497;DHT22;1259;48.306;14.374;2022-12-29T06:12:05;3.20;99.90
2497;DHT22;1259;48.306;14.374;2022-12-29T06:14:32;3.20;99.90
2497;DHT22;1259;48.306;14.374;2022-12-29T06:16:59;3.20;99.90
2497;DHT22;1259;48.306;14.374;2022-12-29T06:19:26;3.20;99.90
2497;DHT22;1259;48.306;14.374;2022-12-29T06:21:53;3.20;99.90
2497;DHT22;1259;48.306;14.374;2022-12-29T06:24:20;3.20;99.90
2497;DHT22;1259;48.306;14.374;2022-12-29T06:26:48;3.10;99.90
2497;DHT22;1259;48.306;14.374;2022-12-29T06:29:15;3.10;99.90
2497;DHT22;1259;48.306;14.374;2022-12-29T06:31:43;3.10;99.90
2497;DHT22;1259;48.306;14.374;2022-12-29T06:34:11;3.20;99.90
2497;DHT22;1259;48.306;14.374;2022-12-29T06:36:38;3.20;99.90
2497;DHT22;1259;48.306;14.374;2022-12-29T06:39:05;3.10;99.90
2497;DHT22;1259;48.306;14.374;2022-12-29T06:41:32;3.10;99.90
2497;DHT22;1259;48.306;14.374;2022-12-29T06:44:00;3.20;99.90
2497;DHT22;1259;48.306;14.374;2022-12-29T06:46:27;3.20;99.90
2497;DHT22;1259;48.306;14.374;2022-12-29T06:48:54;3.10;99.90
2497;DHT22;1259;48.306;14.374;2022-12-29T06:51:21;3.20;99.90
2497;DHT22;1259;48.306;14.374;2022-12-29T06:53:47;3.20;99.90
2497;DHT22;1259;48.306;14.374;2022-12-29T06:56:14;3.20;99.90
2497;DHT22;1259;48.306;14.374;2022-12-29T06:58:41;3.20;99.90
2497;DHT22;1259;48.306;14.374;2022-12-29T07:01:09;3.20;99.90
2497;DHT22;1259;48.306;14.374;2022-12-29T07:03:36;3.30;99.90
2497;DHT22;1259;48.306;14.374;2022-12-29T07:06:04;3.30;99.90
2497;DHT22;1259;48.306;14.374;2022-12-29T07:08:31;3.30;99.90
2497;DHT22;1259;48.306;14.374;2022-12-29T07:10:58;3.30;99.90
2497;DHT22;1259;48.306;14.374;2022-12-29T07:13:25;3.30;99.90
2497;DHT22;1259;48.306;14.374;2022-12-29T07:15:52;3.40;99.90
2497;DHT22;1259;48.306;14.374;2022-12-29T07:18:20;3.40;99.90
2497;DHT22;1259;48.306;14.374;2022-12-29T07:20:47;3.40;99.90
2497;DHT22;1259;48.306;14.374;2022-12-29T07:23:14;3.50;99.90
2497;DHT22;1259;48.306;14.374;2022-12-29T07:25:41;3.50;99.90
2497;DHT22;1259;48.306;14.374;2022-12-29T07:28:08;3.60;99.90
2497;DHT22;1259;48.306;14.374;2022-12-29T07:30:37;3.60;99.90
2497;DHT22;1259;48.306;14.374;2022-12-29T07:33:04;3.60;99.90
2497;DHT22;1259;48.306;14.374;2022-12-29T07:35:33;3.70;99.90
2497;DHT22;1259;48.306;14.374;2022-12-29T07:38:00;3.70;99.90
2497;DHT22;1259;48.306;14.374;2022-12-29T07:40:27;3.70;99.90
2497;DHT22;1259;48.306;14.374;2022-12-29T07:42:54;3.80;99.90
2497;DHT22;1259;48.306;14.374;2022-12-29T07:45:21;3.80;99.90
2497;DHT22;1259;48.306;14.374;2022-12-29T07:47:48;3.90;99.90
2497;DHT22;1259;48.306;14.374;2022-12-29T07:50:15;3.90;99.90
2497;DHT22;1259;48.306;14.374;2022-12-29T07:52:44;4.00;99.90
2497;DHT22;1259;48.306;14.374;2022-12-29T07:55:12;4.10;99.90
2497;DHT22;1259;48.306;14.374;2022-12-29T07:57:39;4.20;99.90
2497;DHT22;1259;48.306;14.374;2022-12-29T08:00:07;4.40;99.90
2497;DHT22;1259;48.306;14.374;2022-12-29T08:02:35;4.50;99.90
2497;DHT22;1259;48.306;14.374;2022-12-29T08:05:02;4.60;99.90
2497;DHT22;1259;48.306;14.374;2022-12-29T08:07:29;4.60;99.90
2497;DHT22;1259;48.306;14.374;2022-12-29T08:09:57;4.60;99.90
2497;DHT22;1259;48.306;14.374;2022-12-29T08:12:24;4.60;99.90
2497;DHT22;1259;48.306;14.374;2022-12-29T08:14:50;4.60;99.90
2497;DHT22;1259;48.306;14.374;2022-12-29T08:17:17;4.60;99.90
2497;DHT22;1259;48.306;14.374;2022-12-29T08:19:44;4.60;99.90
2497;DHT22;1259;48.306;14.374;2022-12-29T08:22:12;4.70;99.90
2497;DHT22;1259;48.306;14.374;2022-12-29T08:24:39;4.70;99.90
2497;DHT22;1259;48.306;14.374;2022-12-29T08:27:07;4.80;99.90
2497;DHT22;1259;48.306;14.374;2022-12-29T08:29:34;4.80;99.90
2497;DHT22;1259;48.306;14.374;2022-12-29T08:32:01;4.80;99.90
2497;DHT22;1259;48.306;14.374;2022-12-29T08:34:29;4.80;99.90
2497;DHT22;1259;48.306;14.374;2022-12-29T08:36:56;4.90;99.90
2497;DHT22;1259;48.306;14.374;2022-12-29T08:39:23;4.90;99.90
2497;DHT22;1259;48.306;14.374;2022-12-29T08:41:50;4.90;99.90
2497;DHT22;1259;48.306;14.374;2022-12-29T08:44:18;5.00;99.90
2497;DHT22;1259;48.306;14.374;2022-12-29T08:46:45;5.00;99.90
2497;DHT22;1259;48.306;14.374;2022-12-29T08:49:12;5.10;99.90
2497;DHT22;1259;48.306;14.374;2022-12-29T08:51:39;5.20;99.90
2497;DHT22;1259;48.306;14.374;2022-12-29T08:54:06;5.20;99.90
2497;DHT22;1259;48.306;14.374;2022-12-29T08:56:33;5.30;99.90
2497;DHT22;1259;48.306;14.374;2022-12-29T08:59:00;5.30;99.90
2497;DHT22;1259;48.306;14.374;2022-12-29T09:01:28;5.40;99.90
2497;DHT22;1259;48.306;14.374;2022-12-29T09:03:55;5.40;99.90
2497;DHT22;1259;48.306;14.374;2022-12-29T09:06:22;5.40;99.90
2497;DHT22;1259;48.306;14.374;2022-12-29T09:08:49;5.50;99.90
2497;DHT22;1259;48.306;14.374;2022-12-29T09:11:18;5.70;99.90
2497;DHT22;1259;48.306;14.374;2022-12-29T09:13:46;5.70;99.90
2497;DHT22;1259;48.306;14.374;2022-12-29T09:16:13;5.90;99.90
2497;DHT22;1259;48.306;14.374;2022-12-29T09:18:42;6.00;99.90
2497;DHT22;1259;48.306;14.374;2022-12-29T09:21:10;6.00;99.90
2497;DHT22;1259;48.306;14.374;2022-12-29T09:23:38;5.90;99.90
2497;DHT22;1259;48.306;14.374;2022-12-29T09:26:05;5.90;99.90
2497;DHT22;1259;48.306;14.374;2022-12-29T09:28:33;5.90;99.90
2497;DHT22;1259;48.306;14.374;2022-12-29T09:31:00;6.00;99.90
2497;DHT22;1259;48.306;14.374;2022-12-29T09:33:27;6.00;99.70
2497;DHT22;1259;48.306;14.374;2022-12-29T09:35:57;6.10;99.90
2497;DHT22;1259;48.306;14.374;2022-12-29T09:38:25;6.20;99.90
2497;DHT22;1259;48.306;14.374;2022-12-29T09:40:54;6.10;99.90
2497;DHT22;1259;48.306;14.374;2022-12-29T09:46:24;6.10;99.90
2497;DHT22;1259;48.306;14.374;2022-12-29T09:48:57;6.20;99.90
2497;DHT22;1259;48.306;14.374;2022-12-29T09:51:29;6.30;99.90
2497;DHT22;1259;48.306;14.374;2022-12-29T09:54:00;6.40;99.90
2497;DHT22;1259;48.306;14.374;2022-12-29T09:56:28;6.40;98.90
2497;DHT22;1259;48.306;14.374;2022-12-29T09:58:59;6.40;98.00
2497;DHT22;1259;48.306;14.374;2022-12-29T10:01:32;6.30;99.80
2497;DHT22;1259;48.306;14.374;2022-12-29T10:04:00;6.40;98.80
2497;DHT22;1259;48.306;14.374;2022-12-29T10:06:37;6.50;98.80
2497;DHT22;1259;48.306;14.374;2022-12-29T10:09:14;6.50;99.20
2497;DHT22;1259;48.306;14.374;2022-12-29T10:11:58;6.40;98.90
2497;DHT22;1259;48.306;14.374;2022-12-29T10:14:37;6.40;98.60
2497;DHT22;1259;48.306;14.374;2022-12-29T10:17:22;6.40;97.60
2497;DHT22;1259;48.306;14.374;2022-12-29T10:20:11;6.30;98.10
2497;DHT22;1259;48.306;14.374;2022-12-29T10:22:55;6.20;98.10
2497;DHT22;1259;48.306;14.374;2022-12-29T10:25:28;6.20;96.80
2497;DHT22;1259;48.306;14.374;2022-12-29T10:27:58;6.20;99.20
2497;DHT22;1259;48.306;14.374;2022-12-29T10:30:26;6.30;98.70
2497;DHT22;1259;48.306;14.374;2022-12-29T10:32:55;6.30;97.40
2497;DHT22;1259;48.306;14.374;2022-12-29T10:35:25;6.40;98.30
2497;DHT22;1259;48.306;14.374;2022-12-29T10:37:58;6.50;97.50
2497;DHT22;1259;48.306;14.374;2022-12-29T10:40:31;6.40;97.00
2497;DHT22;1259;48.306;14.374;2022-12-29T10:43:07;6.60;98.50
2497;DHT22;1259;48.306;14.374;2022-12-29T10:45:39;6.60;97.50
2497;DHT22;1259;48.306;14.374;2022-12-29T10:48:11;6.70;97.60
2497;DHT22;1259;48.306;14.374;2022-12-29T10:50:42;6.60;96.80
2497;DHT22;1259;48.306;14.374;2022-12-29T10:53:18;6.70;97.00
2497;DHT22;1259;48.306;14.374;2022-12-29T10:55:46;6.70;97.60
2497;DHT22;1259;48.306;14.374;2022-12-29T10:58:15;6.80;97.90
2497;DHT22;1259;48.306;14.374;2022-12-29T11:00:43;6.90;99.90
2497;DHT22;1259;48.306;14.374;2022-12-29T11:06:18;7.00;98.00
2497;DHT22;1259;48.306;14.374;2022-12-29T11:08:53;6.90;97.40
2497;DHT22;1259;48.306;14.374;2022-12-29T11:11:25;6.90;98.10
2497;DHT22;1259;48.306;14.374;2022-12-29T11:13:57;6.90;97.70
2497;DHT22;1259;48.306;14.374;2022-12-29T11:16:31;6.90;96.80
2497;DHT22;1259;48.306;14.374;2022-12-29T11:18:59;6.90;96.20
2497;DHT22;1259;48.306;14.374;2022-12-29T11:21:31;7.00;96.90
2497;DHT22;1259;48.306;14.374;2022-12-29T11:24:04;7.10;98.00
2497;DHT22;1259;48.306;14.374;2022-12-29T11:26:32;7.20;97.90
2497;DHT22;1259;48.306;14.374;2022-12-29T11:29:18;7.30;97.10
2497;DHT22;1259;48.306;14.374;2022-12-29T11:31:48;7.40;98.20
2497;DHT22;1259;48.306;14.374;2022-12-29T11:34:19;7.40;96.80
2497;DHT22;1259;48.306;14.374;2022-12-29T11:36:46;7.50;98.90
2497;DHT22;1259;48.306;14.374;2022-12-29T11:39:31;7.80;98.10
2497;DHT22;1259;48.306;14.374;2022-12-29T11:42:00;7.80;96.10
2497;DHT22;1259;48.306;14.374;2022-12-29T11:44:35;7.80;97.00
2497;DHT22;1259;48.306;14.374;2022-12-29T11:47:03;7.90;97.50
2497;DHT22;1259;48.306;14.374;2022-12-29T11:49:30;7.90;98.20
2497;DHT22;1259;48.306;14.374;2022-12-29T11:51:57;8.00;97.40
2497;DHT22;1259;48.306;14.374;2022-12-29T11:54:30;8.10;99.90
2497;DHT22;1259;48.306;14.374;2022-12-29T11:57:07;8.20;99.90
2497;DHT22;1259;48.306;14.374;2022-12-29T11:59:39;8.20;99.90
2497;DHT22;1259;48.306;14.374;2022-12-29T12:02:24;8.30;99.90
2497;DHT22;1259;48.306;14.374;2022-12-29T12:04:56;8.20;99.90
2497;DHT22;1259;48.306;14.374;2022-12-29T12:07:36;8.30;99.90
2497;DHT22;1259;48.306;14.374;2022-12-29T12:10:15;8.20;99.90
2497;DHT22;1259;48.306;14.374;2022-12-29T12:12:47;8.20;99.10
2497;DHT22;1259;48.306;14.374;2022-12-29T12:15:19;8.20;99.90
2497;DHT22;1259;48.306;14.374;2022-12-29T12:17:51;8.30;99.70
2497;DHT22;1259;48.306;14.374;2022-12-29T12:20:22;8.30;99.90
2497;DHT22;1259;48.306;14.374;2022-12-29T12:22:58;8.30;99.90
2497;DHT22;1259;48.306;14.374;2022-12-29T12:25:31;8.20;99.90
2497;DHT22;1259;48.306;14.374;2022-12-29T12:28:08;8.10;99.90
2497;DHT22;1259;48.306;14.374;2022-12-29T12:30:39;8.00;99.90
2497;DHT22;1259;48.306;14.374;2022-12-29T12:33:16;7.90;99.90
2497;DHT22;1259;48.306;14.374;2022-12-29T12:35:57;7.80;99.90
2497;DHT22;1259;48.306;14.374;2022-12-29T12:38:37;7.80;99.90
2497;DHT22;1259;48.306;14.374;2022-12-29T12:41:13;7.90;99.90
2497;DHT22;1259;48.306;14.374;2022-12-29T12:43:46;7.80;99.90
2497;DHT22;1259;48.306;14.374;2022-12-29T12:49:42;7.90;99.90
2497;DHT22;1259;48.306;14.374;2022-12-29T12:52:16;7.80;99.90
2497;DHT22;1259;48.306;14.374;2022-12-29T12:54:58;7.90;99.90
2497;DHT22;1259;48.306;14.374;2022-12-29T12:57:40;7.70;99.90
2497;DHT22;1259;48.306;14.374;2022-12-29T13:00:11;7.60;99.90
2497;DHT22;1259;48.306;14.374;2022-12-29T13:02:47;7.60;99.90
2497;DHT22;1259;48.306;14.374;2022-12-29T13:05:29;7.60;99.90
2497;DHT22;1259;48.306;14.374;2022-12-29T13:08:16;7.50;99.90
2497;DHT22;1259;48.306;14.374;2022-12-29T13:10:52;7.70;99.90
2497;DHT22;1259;48.306;14.374;2022-12-29T13:13:45;7.70;99.90
2497;DHT22;1259;48.306;14.374;2022-12-29T13:16:22;7.80;99.90
2497;DHT22;1259;48.306;14.374;2022-12-29T13:18:55;7.90;99.90
2497;DHT22;1259;48.306;14.374;2022-12-29T13:21:35;7.90;99.90
2497;DHT22;1259;48.306;14.374;2022-12-29T13:24:12;8.00;99.90
2497;DHT22;1259;48.306;14.374;2022-12-29T13:26:44;7.90;99.90
2497;DHT22;1259;48.306;14.374;2022-12-29T13:29:17;7.80;99.90
2497;DHT22;1259;48.306;14.374;2022-12-29T13:31:52;7.80;99.90
2497;DHT22;1259;48.306;14.374;2022-12-29T13:34:32;7.70;99.90
2497;DHT22;1259;48.306;14.374;2022-12-29T13:37:04;7.70;99.90
2497;DHT22;1259;48.306;14.374;2022-12-29T13:39:36;7.50;99.90
2497;DHT22;1259;48.306;14.374;2022-12-29T13:42:05;7.50;99.90
2497;DHT22;1259;48.306;14.374;2022-12-29T13:44:37;7.70;99.90
2497;DHT22;1259;48.306;14.374;2022-12-29T13:47:21;7.80;99.90
2497;DHT22;1259;48.306;14.374;2022-12-29T13:49:52;7.80;99.90
2497;DHT22;1259;48.306;14.374;2022-12-29T13:52:25;7.80;99.90
2497;DHT22;1259;48.306;14.374;2022-12-29T13:55:00;7.80;99.90
2497;DHT22;1259;48.306;14.374;2022-12-29T13:57:36;7.80;99.90
2497;DHT22;1259;48.306;14.374;2022-12-29T14:00:14;7.80;99.80
2497;DHT22;1259;48.306;14.374;2022-12-29T14:02:50;7.60;99.90
2497;DHT22;1259;48.306;14.374;2022-12-29T14:05:30;7.60;99.90
2497;DHT22;1259;48.306;14.374;2022-12-29T14:08:00;7.60;99.90
2497;DHT22;1259;48.306;14.374;2022-12-29T14:10:29;7.50;99.90
2497;DHT22;1259;48.306;14.374;2022-12-29T14:13:02;7.40;99.90
2497;DHT22;1259;48.306;14.374;2022-12-29T14:15:31;7.50;97.50
2497;DHT22;1259;48.306;14.374;2022-12-29T14:18:05;7.50;98.50
2497;DHT22;1259;48.306;14.374;2022-12-29T14:20:36;7.50;99.20
2497;DHT22;1259;48.306;14.374;2022-12-29T14:23:16;7.50;99.40
2497;DHT22;1259;48.306;14.374;2022-12-29T14:25:59;7.60;98.60
2497;DHT22;1259;48.306;14.374;2022-12-29T14:28:28;7.50;98.50
2497;DHT22;1259;48.306;14.374;2022-12-29T14:30:58;7.40;98.10
2497;DHT22;1259;48.306;14.374;2022-12-29T14:33:27;7.50;97.50
2497;DHT22;1259;48.306;14.374;2022-12-29T14:35:55;7.50;98.30
2497;DHT22;1259;48.306;14.374;2022-12-29T14:38:28;7.40;98.90
2497;DHT22;1259;48.306;14.374;2022-12-29T14:41:24;7.40;98.10
2497;DHT22;1259;48.306;14.374;2022-12-29T14:44:02;7.30;98.70
2497;DHT22;1259;48.306;14.374;2022-12-29T14:46:56;7.20;98.30
2497;DHT22;1259;48.306;14.374;2022-12-29T14:49:26;7.20;98.00
2497;DHT22;1259;48.306;14.374;2022-12-29T14:52:03;7.10;98.10
2497;DHT22;1259;48.306;14.374;2022-12-29T14:54:46;7.00;98.60
2497;DHT22;1259;48.306;14.374;2022-12-29T15:00:16;7.10;97.40
2497;DHT22;1259;48.306;14.374;2022-12-29T15:02:48;7.10;97.30
2497;DHT22;1259;48.306;14.374;2022-12-29T15:05:28;7.00;97.40
2497;DHT22;1259;48.306;14.374;2022-12-29T15:07:56;7.00;97.30
2497;DHT22;1259;48.306;14.374;2022-12-29T15:10:25;7.00;97.20
2497;DHT22;1259;48.306;14.374;2022-12-29T15:13:00;7.00;97.80
2497;DHT22;1259;48.306;14.374;2022-12-29T15:15:36;6.90;97.40
2497;DHT22;1259;48.306;14.374;2022-12-29T15:18:15;6.90;97.50
2497;DHT22;1259;48.306;14.374;2022-12-29T15:20:51;7.00;97.60
2497;DHT22;1259;48.306;14.374;2022-12-29T15:23:19;6.90;97.30
2497;DHT22;1259;48.306;14.374;2022-12-29T15:25:49;6.90;97.40
2497;DHT22;1259;48.306;14.374;2022-12-29T15:28:20;6.90;97.90
2497;DHT22;1259;48.306;14.374;2022-12-29T15:30:52;6.90;98.20
2497;DHT22;1259;48.306;14.374;2022-12-29T15:33:22;6.90;98.10
2497;DHT22;1259;48.306;14.374;2022-12-29T15:35:50;6.80;98.10
2497;DHT22;1259;48.306;14.374;2022-12-29T15:38:21;6.80;98.50
2497;DHT22;1259;48.306;14.374;2022-12-29T15:40:52;6.70;98.90
2497;DHT22;1259;48.306;14.374;2022-12-29T15:43:45;6.70;98.50
2497;DHT22;1259;48.306;14.374;2022-12-29T15:46:14;6.80;98.80
2497;DHT22;1259;48.306;14.374;2022-12-29T15:48:43;6.70;98.60
2497;DHT22;1259;48.306;14.374;2022-12-29T15:51:18;6.70;98.90
2497;DHT22;1259;48.306;14.374;2022-12-29T15:53:47;6.60;99.10
2497;DHT22;1259;48.306;14.374;2022-12-29T15:56:15;6.50;99.00
2497;DHT22;1259;48.306;14.374;2022-12-29T15:58:43;6.60;99.30
2497;DHT22;1259;48.306;14.374;2022-12-29T16:01:18;6.50;99.20
2497;DHT22;1259;48.306;14.374;2022-12-29T16:03:47;6.50;99.40
2497;DHT22;1259;48.306;14.374;2022-12-29T16:06:29;6.50;99.60
2497;DHT22;1259;48.306;14.374;2022-12-29T16:08:57;6.40;99.80
2497;DHT22;1259;48.306;14.374;2022-12-29T16:11:27;6.40;99.50
2497;DHT22;1259;48.306;14.374;2022-12-29T16:13:56;6.30;99.60
2497;DHT22;1259;48.306;14.374;2022-12-29T16:16:27;6.30;99.50
2497;DHT22;1259;48.306;14.374;2022-12-29T16:18:56;6.30;99.50
2497;DHT22;1259;48.306;14.374;2022-12-29T16:21:26;6.20;99.90
2497;DHT22;1259;48.306;14.374;2022-12-29T16:23:57;6.20;99.80
2497;DHT22;1259;48.306;14.374;2022-12-29T16:26:26;6.10;99.80
2497;DHT22;1259;48.306;14.374;2022-12-29T16:28:56;6.20;99.10
2497;DHT22;1259;48.306;14.374;2022-12-29T16:31:26;6.20;99.20
2497;DHT22;1259;48.306;14.374;2022-12-29T16:34:10;6.10;99.40
2497;DHT22;1259;48.306;14.374;2022-12-29T16:36:51;6.10;99.10
2497;DHT22;1259;48.306;14.374;2022-12-29T16:39:23;6.00;99.20
2497;DHT22;1259;48.306;14.374;2022-12-29T16:41:52;6.00;99.70
2497;DHT22;1259;48.306;14.374;2022-12-29T16:44:20;6.00;99.50
2497;DHT22;1259;48.306;14.374;2022-12-29T16:47:20;5.90;99.50
2497;DHT22;1259;48.306;14.374;2022-12-29T16:49:53;5.80;99.60